createdAt,value
2022-10-23T00:01:23.020Z,76.40
2022-10-23T00:04:19.817Z,67.80
2022-10-23T00:06:47.484Z,67.40
2022-10-23T00:09:16.863Z,65.50
2022-10-23T00:11:46.876Z,76.10
2022-10-23T00:14:14.503Z,71.70
2022-10-23T00:16:40.935Z,78.00
2022-10-23T00:19:08.147Z,71.80
2022-10-23T00:21:34.449Z,82.80
2022-10-23T00:24:00.756Z,76.50
2022-10-23T00:26:27.062Z,69.70
2022-10-23T00:28:54.147Z,77.50
2022-10-23T00:31:21.905Z,84.30
2022-10-23T00:33:48.616Z,77.40
2022-10-23T00:36:18.707Z,69.80
2022-10-23T00:38:45.759Z,91.80
2022-10-23T00:41:21.605Z,71.70
2022-10-23T00:44:12.280Z,68.20
2022-10-23T00:46:39.554Z,80.80
2022-10-23T00:49:06.777Z,69.70
2022-10-23T00:51:39.489Z,66.10
2022-10-23T00:56:56.997Z,66.60
2022-10-23T00:59:23.357Z,73.70
2022-10-23T01:01:49.870Z,71.00
2022-10-23T01:04:17.279Z,64.40
2022-10-23T01:07:12.909Z,79.00
2022-10-23T01:10:07.424Z,79.20
2022-10-23T01:12:42.658Z,58.10
2022-10-23T01:15:36.426Z,68.20
2022-10-23T01:18:30.932Z,77.30
2022-10-23T01:21:14.318Z,64.40
2022-10-23T01:23:46.932Z,65.30
2022-10-23T01:26:26.708Z,61.60
2022-10-23T01:29:12.444Z,53.70
2022-10-23T01:31:44.500Z,59.50
2022-10-23T01:34:20.286Z,67.80
2022-10-23T01:36:50.078Z,66.20
2022-10-23T01:39:40.731Z,61.20
2022-10-23T01:42:14.478Z,60.70
2022-10-23T01:44:46.123Z,63.50
2022-10-23T01:47:15.066Z,63.10
2022-10-23T01:49:55.367Z,65.50
2022-10-23T01:52:22.135Z,54.20
2022-10-23T01:54:52.864Z,58.90
2022-10-23T01:57:21.669Z,56.40
2022-10-23T02:00:00.719Z,55.80
2022-10-23T02:02:28.201Z,53.70
2022-10-23T02:05:14.659Z,51.30
2022-10-23T02:07:41.726Z,55.90
2022-10-23T02:10:09.420Z,49.30
2022-10-23T02:12:42.123Z,45.30
2022-10-23T02:15:14.480Z,57.60
2022-10-23T02:17:57.455Z,58.80
2022-10-23T02:23:33.628Z,54.90
2022-10-23T02:26:15.915Z,47.60
2022-10-23T02:28:51.529Z,48.30
2022-10-23T02:31:21.567Z,52.20
2022-10-23T02:33:48.527Z,39.80
2022-10-23T02:36:16.216Z,41.50
2022-10-23T02:38:44.505Z,52.90
2022-10-23T02:41:17.392Z,53.20
2022-10-23T02:44:22.886Z,57.30
2022-10-23T02:47:26.795Z,49.90
2022-10-23T02:50:27.699Z,46.90
2022-10-23T02:53:26.555Z,52.60
2022-10-23T02:56:01.194Z,43.80
2022-10-23T02:58:30.736Z,48.20
2022-10-23T03:01:05.557Z,51.10
2022-10-23T03:03:40.009Z,41.90
2022-10-23T03:06:08.007Z,47.80
2022-10-23T03:08:57.651Z,55.90
2022-10-23T03:11:25.865Z,42.90
2022-10-23T03:13:52.068Z,48.00
2022-10-23T03:16:18.403Z,63.10
2022-10-23T03:18:50.675Z,52.50
2022-10-23T03:21:17.278Z,44.30
2022-10-23T03:23:43.730Z,66.90
2022-10-23T03:26:13.677Z,53.30
2022-10-23T03:28:42.276Z,57.40
2022-10-23T03:31:08.549Z,65.00
2022-10-23T03:33:34.840Z,57.50
2022-10-23T03:36:09.410Z,71.80
2022-10-23T03:38:35.739Z,70.60
2022-10-23T03:41:03.112Z,55.60
2022-10-23T03:43:29.416Z,60.40
2022-10-23T03:45:56.558Z,53.30
2022-10-23T03:48:24.552Z,57.00
2022-10-23T03:50:51.183Z,62.30
2022-10-23T03:53:17.903Z,65.80
2022-10-23T03:55:44.708Z,65.50
2022-10-23T03:58:11.468Z,57.20
2022-10-23T04:00:37.808Z,61.30
2022-10-23T04:03:04.134Z,87.00
2022-10-23T04:05:30.433Z,72.90
2022-10-23T04:07:57.985Z,57.40
2022-10-23T04:10:24.839Z,69.30
2022-10-23T04:12:51.033Z,63.20
2022-10-23T04:15:17.321Z,71.90
2022-10-23T04:17:45.859Z,71.90
2022-10-23T04:20:13.036Z,75.60
2022-10-23T04:22:39.403Z,72.80
2022-10-23T04:25:05.803Z,78.60
2022-10-23T04:27:33.694Z,86.70
2022-10-23T04:30:00.960Z,72.90
2022-10-23T04:32:27.303Z,67.10
2022-10-23T04:34:53.555Z,73.30
2022-10-23T04:37:20.036Z,65.30
2022-10-23T04:39:46.628Z,65.70
2022-10-23T04:42:14.636Z,73.20
2022-10-23T04:44:40.958Z,70.20
2022-10-23T04:47:07.371Z,69.60
2022-10-23T04:49:40.724Z,81.70
2022-10-23T04:52:23.075Z,83.20
2022-10-23T04:55:06.162Z,90.60
2022-10-23T04:57:41.824Z,78.60
2022-10-23T05:00:13.340Z,89.70
2022-10-23T05:02:55.544Z,82.90
2022-10-23T05:05:22.230Z,77.10
2022-10-23T05:08:05.657Z,58.20
2022-10-23T05:10:49.208Z,71.20
2022-10-23T05:13:19.717Z,63.20
2022-10-23T05:15:50.078Z,58.80
2022-10-23T05:18:34.916Z,61.60
2022-10-23T05:21:29.329Z,52.40
2022-10-23T05:26:28.296Z,51.70
2022-10-23T05:28:55.553Z,58.80
2022-10-23T05:31:23.956Z,67.10
2022-10-23T05:33:54.342Z,69.50
2022-10-23T05:36:22.892Z,75.20
2022-10-23T05:38:56.026Z,59.60
2022-10-23T05:41:22.222Z,72.80
2022-10-23T05:43:48.615Z,61.00
2022-10-23T05:46:30.806Z,62.00
2022-10-23T05:49:13.056Z,72.10
2022-10-23T05:51:55.612Z,78.50
2022-10-23T05:54:37.842Z,71.10
2022-10-23T05:57:19.971Z,80.30
2022-10-23T05:59:51.308Z,80.80
2022-10-23T06:02:40.981Z,77.80
2022-10-23T06:05:23.395Z,82.20
2022-10-23T06:08:05.648Z,83.80
2022-10-23T06:10:32.274Z,74.80
2022-10-23T06:13:01.285Z,77.00
2022-10-23T06:15:27.904Z,94.60
2022-10-23T06:18:03.656Z,99.70
2022-10-23T06:20:36.444Z,96.10
2022-10-23T06:23:07.961Z,83.90
2022-10-23T06:25:55.855Z,102.00
2022-10-23T06:28:28.551Z,103.50
2022-10-23T06:30:54.905Z,75.30
2022-10-23T06:33:21.712Z,106.10
2022-10-23T06:35:48.153Z,68.90
2022-10-23T06:38:14.571Z,107.40
2022-10-23T06:40:52.242Z,108.80
2022-10-23T06:43:23.810Z,78.30
2022-10-23T06:46:13.656Z,80.60
2022-10-23T06:48:55.852Z,97.80
2022-10-23T06:51:28.901Z,99.50
2022-10-23T06:53:56.655Z,96.60
2022-10-23T06:56:38.964Z,77.40
2022-10-23T06:59:07.041Z,66.30
2022-10-23T07:01:34.437Z,65.00
2022-10-23T07:04:01.778Z,71.10
2022-10-23T07:06:28.243Z,85.50
2022-10-23T07:08:54.591Z,85.80
2022-10-23T07:11:36.941Z,81.10
2022-10-23T07:14:03.737Z,74.10
2022-10-23T07:16:31.351Z,76.30
2022-10-23T07:19:00.321Z,106.50
2022-10-23T07:21:29.012Z,93.90
2022-10-23T07:24:01.427Z,65.50
2022-10-23T07:26:29.030Z,58.70
2022-10-23T07:28:56.024Z,75.50
2022-10-23T07:31:28.203Z,62.30
2022-10-23T07:34:11.267Z,56.50
2022-10-23T07:36:38.904Z,42.90
2022-10-23T07:39:05.315Z,42.90
2022-10-23T07:41:32.406Z,41.40
2022-10-23T07:43:58.836Z,34.50
2022-10-23T07:46:33.833Z,25.10
2022-10-23T07:49:00.539Z,25.90
2022-10-23T07:51:26.873Z,21.90
2022-10-23T07:53:56.894Z,18.20
2022-10-23T07:56:39.260Z,20.40
2022-10-23T07:59:15.118Z,29.90
2022-10-23T08:01:49.551Z,30.90
2022-10-23T08:04:18.773Z,52.20
2022-10-23T08:06:55.986Z,43.00
2022-10-23T08:09:23.795Z,37.20
2022-10-23T08:11:50.269Z,36.70
2022-10-23T08:14:18.171Z,51.30
2022-10-23T08:16:45.283Z,52.50
2022-10-23T08:19:18.131Z,56.10
2022-10-23T08:21:45.556Z,49.50
2022-10-23T08:24:13.253Z,52.90
2022-10-23T08:26:40.793Z,51.40
2022-10-23T08:29:07.841Z,48.30
2022-10-23T08:31:34.698Z,48.00
2022-10-23T08:34:18.159Z,62.00
2022-10-23T08:36:45.846Z,54.80
2022-10-23T08:39:12.960Z,67.70
2022-10-23T08:44:29.565Z,50.10
2022-10-23T08:47:18.915Z,61.20
2022-10-23T08:49:57.050Z,57.10
2022-10-23T08:52:56.486Z,58.80
2022-10-23T08:55:27.840Z,52.10
2022-10-23T08:58:05.867Z,61.20
2022-10-23T09:00:33.065Z,49.00
2022-10-23T09:03:04.951Z,67.80
2022-10-23T09:05:47.866Z,47.60
2022-10-23T09:08:37.408Z,60.60
2022-10-23T09:11:26.364Z,59.20
2022-10-23T09:14:26.111Z,51.90
2022-10-23T09:17:34.997Z,55.20
2022-10-23T09:20:25.367Z,53.80
2022-10-23T09:22:59.312Z,61.70
2022-10-23T09:25:28.702Z,62.00
2022-10-23T09:28:01.375Z,57.80
2022-10-23T09:30:37.729Z,72.90
2022-10-23T09:33:22.108Z,61.90
2022-10-23T09:36:18.193Z,64.60
2022-10-23T09:38:44.716Z,67.20
2022-10-23T09:41:30.506Z,66.60
2022-10-23T09:44:02.079Z,77.70
2022-10-23T09:49:50.643Z,65.90
2022-10-23T09:52:16.955Z,65.60
2022-10-23T09:54:47.143Z,71.80
2022-10-23T09:57:27.794Z,59.60
2022-10-23T09:59:56.984Z,70.10
2022-10-23T10:02:31.597Z,75.20
2022-10-23T10:05:24.558Z,63.20
2022-10-23T10:08:21.018Z,63.60
2022-10-23T10:10:51.738Z,60.90
2022-10-23T10:13:35.921Z,65.50
2022-10-23T10:16:34.281Z,63.00
2022-10-23T10:19:33.874Z,67.80
2022-10-23T10:22:16.969Z,57.50
2022-10-23T10:25:15.262Z,56.80
2022-10-23T10:28:03.612Z,63.90
2022-10-23T10:30:45.442Z,50.80
2022-10-23T10:33:31.430Z,47.20
2022-10-23T10:36:13.817Z,50.50
2022-10-23T10:38:56.145Z,42.10
2022-10-23T10:41:44.218Z,46.40
2022-10-23T10:44:46.864Z,54.80
2022-10-23T10:47:21.198Z,43.60
2022-10-23T10:50:06.891Z,37.60
2022-10-23T10:53:28.943Z,44.60
2022-10-23T10:55:58.601Z,37.20
2022-10-23T10:58:37.727Z,33.90
2022-10-23T11:01:15.921Z,39.20
2022-10-23T11:03:51.570Z,45.10
2022-10-23T11:06:23.992Z,40.10
2022-10-23T11:08:58.206Z,40.70
2022-10-23T11:11:42.762Z,37.30
2022-10-23T11:14:26.406Z,31.90
2022-10-23T11:17:12.702Z,34.70
2022-10-23T11:19:50.765Z,31.10
2022-10-23T11:22:34.692Z,34.60
2022-10-23T11:25:17.002Z,34.00
2022-10-23T11:28:04.453Z,39.10
2022-10-23T11:30:49.628Z,42.10
2022-10-23T11:33:32.032Z,46.70
2022-10-23T11:36:18.623Z,41.90
2022-10-23T11:38:50.364Z,46.40
2022-10-23T11:41:27.734Z,38.90
2022-10-23T11:44:02.751Z,42.10
2022-10-23T11:46:32.031Z,48.10
2022-10-23T11:49:01.757Z,44.30
2022-10-23T11:51:36.595Z,46.90
2022-10-23T11:54:23.715Z,52.40
2022-10-23T11:56:53.112Z,45.80
2022-10-23T11:59:25.909Z,51.80
2022-10-23T12:01:54.146Z,54.50
2022-10-23T12:04:25.915Z,52.20
2022-10-23T12:06:56.917Z,49.40
2022-10-23T12:09:52.196Z,58.60
2022-10-23T12:12:40.013Z,56.50
2022-10-23T12:15:20.117Z,56.70
2022-10-23T12:17:48.527Z,52.30
2022-10-23T12:20:43.863Z,52.90
2022-10-23T12:23:14.476Z,57.60
2022-10-23T12:26:14.808Z,57.50
2022-10-23T12:28:47.182Z,56.80
2022-10-23T12:31:43.075Z,56.20
2022-10-23T12:34:44.695Z,56.30
2022-10-23T12:37:43.141Z,56.10
2022-10-23T12:40:11.469Z,53.00
2022-10-23T12:42:39.303Z,52.30
2022-10-23T12:45:18.196Z,45.10
2022-10-23T12:47:46.523Z,55.10
2022-10-23T12:50:17.748Z,50.20
2022-10-23T12:52:52.999Z,50.90
2022-10-23T12:55:20.066Z,48.50
2022-10-23T12:57:47.003Z,40.90
2022-10-23T13:00:19.513Z,42.80
2022-10-23T13:02:46.719Z,37.50
2022-10-23T13:05:19.302Z,32.30
2022-10-23T13:07:47.642Z,37.70
2022-10-23T13:10:18.933Z,38.80
2022-10-23T13:12:56.262Z,37.30
2022-10-23T13:15:23.324Z,35.70
2022-10-23T13:17:52.786Z,36.80
2022-10-23T13:20:22.335Z,42.10
2022-10-23T13:22:59.306Z,40.80
2022-10-23T13:25:30.387Z,41.80
2022-10-23T13:28:22.485Z,38.30
2022-10-23T13:31:11.980Z,33.50
2022-10-23T13:33:39.377Z,33.40
2022-10-23T13:36:15.917Z,34.50
2022-10-23T13:38:59.460Z,28.90
2022-10-23T13:41:29.445Z,29.50
2022-10-23T13:43:55.843Z,28.70
2022-10-23T13:46:25.073Z,26.40
2022-10-23T13:48:51.505Z,22.90
2022-10-23T13:51:19.768Z,27.10
2022-10-23T13:53:46.277Z,31.50
2022-10-23T13:56:15.549Z,32.60
2022-10-23T13:58:42.455Z,27.10
2022-10-23T14:01:16.237Z,25.90
2022-10-23T14:03:42.732Z,23.90
2022-10-23T14:06:09.041Z,29.40
2022-10-23T14:08:35.423Z,23.80
2022-10-23T14:11:01.814Z,27.00
2022-10-23T14:13:28.651Z,21.00
2022-10-23T14:15:55.666Z,19.70
2022-10-23T14:18:21.985Z,22.70
2022-10-23T14:20:48.533Z,23.60
2022-10-23T14:23:15.061Z,24.20
2022-10-23T14:25:41.447Z,24.60
2022-10-23T14:28:07.744Z,24.00
2022-10-23T14:30:36.533Z,23.10
2022-10-23T14:33:03.735Z,24.80
2022-10-23T14:35:30.055Z,24.70
2022-10-23T14:37:57.775Z,25.40
2022-10-23T14:40:24.712Z,33.80
2022-10-23T14:42:51.058Z,28.40
2022-10-23T14:45:17.455Z,26.60
2022-10-23T14:47:44.105Z,37.50
2022-10-23T14:50:12.962Z,31.30
2022-10-23T14:52:39.371Z,32.00
2022-10-23T14:55:06.025Z,39.50
2022-10-23T14:57:32.631Z,72.00
2022-10-23T14:59:59.039Z,60.80
2022-10-23T15:02:26.401Z,62.00
2022-10-23T15:04:52.721Z,74.00
2022-10-23T15:07:19.123Z,251.00
2022-10-23T15:09:45.487Z,271.80
2022-10-23T15:12:11.880Z,327.20
2022-10-23T15:14:38.248Z,120.70
2022-10-23T15:17:04.763Z,217.60
2022-10-23T15:19:31.043Z,52.90
2022-10-23T15:21:57.373Z,32.30
2022-10-23T15:24:24.040Z,37.30
2022-10-23T15:26:51.257Z,38.40
2022-10-23T15:29:18.841Z,31.50
2022-10-23T15:31:56.524Z,38.10
2022-10-23T15:34:27.443Z,36.40
2022-10-23T15:36:56.247Z,39.00
2022-10-23T15:39:25.313Z,45.90
2022-10-23T15:41:54.564Z,115.90
2022-10-23T15:44:23.097Z,79.30
2022-10-23T15:46:50.851Z,133.70
2022-10-23T15:49:18.337Z,346.70
2022-10-23T15:51:45.664Z,71.80
2022-10-23T15:54:16.396Z,56.30
2022-10-23T15:56:43.973Z,162.30
2022-10-23T15:59:10.826Z,70.30
2022-10-23T16:01:37.471Z,67.10
2022-10-23T16:04:04.445Z,67.50
2022-10-23T16:06:31.141Z,94.00
2022-10-23T16:08:57.511Z,130.60
2022-10-23T16:11:30.552Z,181.70
2022-10-23T16:13:58.923Z,276.90
2022-10-23T16:16:27.270Z,144.10
2022-10-23T16:18:53.760Z,92.30
2022-10-23T16:21:26.375Z,75.20
2022-10-23T16:23:55.022Z,56.70
2022-10-23T16:26:22.712Z,67.00
2022-10-23T16:28:57.805Z,92.80
2022-10-23T16:31:25.116Z,93.20
2022-10-23T16:33:53.064Z,76.90
2022-10-23T16:36:20.388Z,72.20
2022-10-23T16:39:04.204Z,76.20
2022-10-23T16:44:19.000Z,55.80
2022-10-23T16:47:11.442Z,57.50
2022-10-23T16:49:37.769Z,51.80
2022-10-23T16:52:04.151Z,59.70
2022-10-23T16:54:30.609Z,89.40
2022-10-23T16:56:57.869Z,77.90
2022-10-23T16:59:24.235Z,68.20
2022-10-23T17:01:50.847Z,66.20
2022-10-23T17:04:17.383Z,66.60
2022-10-23T17:06:44.040Z,73.50
2022-10-23T17:09:10.813Z,77.80
2022-10-23T17:11:39.294Z,69.20
2022-10-23T17:14:10.700Z,75.40
2022-10-23T17:16:43.932Z,71.30
2022-10-23T17:19:20.656Z,70.70
2022-10-23T17:21:59.604Z,68.80
2022-10-23T17:24:26.229Z,88.90
2022-10-23T17:26:53.414Z,74.90
2022-10-23T17:29:20.302Z,83.80
2022-10-23T17:31:49.409Z,92.10
2022-10-23T17:34:19.088Z,99.00
2022-10-23T17:36:49.024Z,89.10
2022-10-23T17:39:18.480Z,84.40
2022-10-23T17:41:45.706Z,92.10
2022-10-23T17:44:12.010Z,110.90
2022-10-23T17:46:39.904Z,153.30
2022-10-23T17:49:06.947Z,326.10
2022-10-23T17:51:34.569Z,222.90
2022-10-23T17:54:05.310Z,295.50
2022-10-23T17:56:32.679Z,209.50
2022-10-23T17:59:06.287Z,540.40
2022-10-23T18:01:33.584Z,428.70
2022-10-23T18:04:03.395Z,307.80
2022-10-23T18:06:52.026Z,449.30
2022-10-23T18:09:19.525Z,523.00
2022-10-23T18:11:48.013Z,389.90
2022-10-23T18:14:17.285Z,412.60
2022-10-23T18:16:44.878Z,419.90
2022-10-23T18:19:11.646Z,382.90
2022-10-23T18:21:39.409Z,381.60
2022-10-23T18:24:06.316Z,433.50
2022-10-23T18:26:37.088Z,381.40
2022-10-23T18:29:06.785Z,344.70
2022-10-23T18:31:35.176Z,389.70
2022-10-23T18:34:07.810Z,399.70
2022-10-23T18:36:37.582Z,420.50
2022-10-23T18:39:05.612Z,404.80
2022-10-23T18:41:34.906Z,370.80
2022-10-23T18:44:01.416Z,324.80
2022-10-23T18:46:27.805Z,286.80
2022-10-23T18:48:54.001Z,259.50
2022-10-23T18:51:24.212Z,279.70
2022-10-23T18:53:51.228Z,320.20
2022-10-23T18:56:22.232Z,251.20
2022-10-23T18:58:53.344Z,179.90
2022-10-23T19:01:21.076Z,174.50
2022-10-23T19:03:47.717Z,228.00
2022-10-23T19:06:15.160Z,223.90
2022-10-23T19:08:43.858Z,276.60
2022-10-23T19:11:12.557Z,275.20
2022-10-23T19:13:40.035Z,258.00
2022-10-23T19:16:18.720Z,373.20
2022-10-23T19:18:51.212Z,370.60
2022-10-23T19:21:19.592Z,331.80
2022-10-23T19:23:47.795Z,388.20
2022-10-23T19:26:14.520Z,413.10
2022-10-23T19:28:44.990Z,255.20
2022-10-23T19:31:12.179Z,345.20
2022-10-23T19:33:38.460Z,275.30
2022-10-23T19:36:06.526Z,323.00
2022-10-23T19:38:34.386Z,298.50
2022-10-23T19:41:03.051Z,275.70
2022-10-23T19:43:29.351Z,244.70
2022-10-23T19:45:55.578Z,181.80
2022-10-23T19:48:21.802Z,166.30
2022-10-23T19:50:48.157Z,232.00
2022-10-23T19:53:16.165Z,247.60
2022-10-23T19:55:42.358Z,177.50
2022-10-23T19:58:08.599Z,250.60
2022-10-23T20:00:35.418Z,223.70
2022-10-23T20:03:01.723Z,208.60
2022-10-23T20:05:28.163Z,175.90
2022-10-23T20:07:54.585Z,184.10
2022-10-23T20:10:20.882Z,226.60
2022-10-23T20:12:56.443Z,249.10
2022-10-23T20:15:28.897Z,136.20
2022-10-23T20:17:55.199Z,186.90
2022-10-23T20:20:22.068Z,160.90
2022-10-23T20:22:52.093Z,126.40
2022-10-23T20:25:21.059Z,126.90
2022-10-23T20:27:47.304Z,160.30
2022-10-23T20:30:13.927Z,140.60
2022-10-23T20:32:40.172Z,124.80
2022-10-23T20:35:07.392Z,144.30
2022-10-23T20:37:33.549Z,102.30
2022-10-23T20:39:59.839Z,163.70
2022-10-23T20:42:26.139Z,156.60
2022-10-23T20:44:52.420Z,117.40
2022-10-23T20:47:18.678Z,153.30
2022-10-23T20:49:44.972Z,150.00
2022-10-23T20:52:11.226Z,123.30
2022-10-23T20:54:37.553Z,205.60
2022-10-23T20:57:03.813Z,182.20
2022-10-23T20:59:30.111Z,138.20
2022-10-23T21:01:57.402Z,170.90
2022-10-23T21:04:26.662Z,149.40
2022-10-23T21:07:09.398Z,136.70
2022-10-23T21:09:37.060Z,99.60
2022-10-23T21:12:03.569Z,142.50
2022-10-23T21:14:30.610Z,111.70
2022-10-23T21:16:56.853Z,123.20
2022-10-23T21:19:23.150Z,91.60
2022-10-23T21:21:49.319Z,113.90
2022-10-23T21:24:16.029Z,124.20
2022-10-23T21:26:43.776Z,77.50
2022-10-23T21:29:18.388Z,150.50
2022-10-23T21:31:57.192Z,140.50
2022-10-23T21:34:24.605Z,151.00
2022-10-23T21:39:38.088Z,116.30
2022-10-23T21:42:04.382Z,114.90
2022-10-23T21:44:30.572Z,94.60
2022-10-23T21:46:56.853Z,124.20
2022-10-23T21:49:23.057Z,148.80
2022-10-23T21:51:49.333Z,123.50
2022-10-23T21:54:15.526Z,190.90
2022-10-23T21:56:47.858Z,215.70
2022-10-23T21:59:19.284Z,192.30
2022-10-23T22:01:47.335Z,140.50
2022-10-23T22:04:16.441Z,93.60
2022-10-23T22:06:43.668Z,112.90
2022-10-23T22:09:13.147Z,110.00
2022-10-23T22:11:39.892Z,160.30
2022-10-23T22:14:06.358Z,151.30
2022-10-23T22:16:32.976Z,176.40
2022-10-23T22:18:59.328Z,118.60
2022-10-23T22:21:28.221Z,143.70
2022-10-23T22:23:57.039Z,103.00
2022-10-23T22:26:27.543Z,115.30
2022-10-23T22:28:55.865Z,73.00
2022-10-23T22:31:25.102Z,64.20
2022-10-23T22:33:52.242Z,67.80
2022-10-23T22:36:19.270Z,60.40
2022-10-23T22:38:46.045Z,64.10
2022-10-23T22:41:12.401Z,48.70
2022-10-23T22:43:38.676Z,61.80
2022-10-23T22:46:08.304Z,45.60
2022-10-23T22:48:34.906Z,55.40
2022-10-23T22:51:01.674Z,45.00
2022-10-23T22:53:28.249Z,48.10
2022-10-23T22:55:55.656Z,47.90
2022-10-23T22:58:23.110Z,52.80
2022-10-23T23:00:51.428Z,43.10
2022-10-23T23:03:17.765Z,48.70
2022-10-23T23:05:46.616Z,47.20
2022-10-23T23:08:14.310Z,45.00
2022-10-23T23:10:40.783Z,45.20
2022-10-23T23:13:07.401Z,56.70
2022-10-23T23:15:39.212Z,56.30
2022-10-23T23:18:05.630Z,43.50
2022-10-23T23:20:31.941Z,48.60
2022-10-23T23:22:58.192Z,55.70
2022-10-23T23:25:24.437Z,54.20
2022-10-23T23:27:50.658Z,52.00
2022-10-23T23:30:17.012Z,51.50
2022-10-23T23:32:47.370Z,53.20
2022-10-23T23:35:13.956Z,42.50
2022-10-23T23:37:40.195Z,44.20
2022-10-23T23:40:07.131Z,45.80
2022-10-23T23:42:33.326Z,49.80
2022-10-23T23:47:36.497Z,44.30
2022-10-23T23:50:05.958Z,46.00
2022-10-23T23:52:32.642Z,41.80
2022-10-23T23:54:59.640Z,50.30
2022-10-23T23:57:26.365Z,47.10
2022-10-23T23:59:52.701Z,49.60
